createdAt,value
2018-08-04T00:02:08.254Z,22.33
2018-08-04T00:04:37.360Z,22.31
2018-08-04T00:07:06.595Z,22.20
2018-08-04T00:09:35.876Z,22.17
2018-08-04T00:12:05.139Z,22.11
2018-08-04T00:14:34.305Z,22.05
2018-08-04T00:17:03.695Z,22.02
2018-08-04T00:19:32.963Z,22.14
2018-08-04T00:22:02.282Z,21.95
2018-08-04T00:24:31.464Z,21.87
2018-08-04T00:27:00.698Z,22.38
2018-08-04T00:29:29.739Z,22.66
2018-08-04T00:31:59.118Z,22.17
2018-08-04T00:34:28.127Z,21.86
2018-08-04T00:36:57.836Z,21.82
2018-08-04T00:39:27.025Z,21.94
2018-08-04T00:41:56.183Z,21.80
2018-08-04T00:44:25.332Z,21.69
2018-08-04T00:46:54.452Z,21.66
2018-08-04T00:49:24.080Z,21.63
2018-08-04T00:51:53.420Z,21.58
2018-08-04T00:54:22.559Z,21.58
2018-08-04T00:56:51.667Z,21.55
2018-08-04T00:59:21.064Z,21.44
2018-08-04T01:01:50.282Z,21.36
2018-08-04T01:04:19.756Z,21.37
2018-08-04T01:06:49.192Z,21.38
2018-08-04T01:09:18.052Z,21.36
2018-08-04T01:11:47.316Z,21.29
2018-08-04T01:14:16.611Z,21.23
2018-08-04T01:16:45.771Z,21.21
2018-08-04T01:19:14.917Z,21.19
2018-08-04T01:21:44.172Z,21.16
2018-08-04T01:24:13.331Z,21.11
2018-08-04T01:26:42.672Z,21.07
2018-08-04T01:29:11.831Z,20.99
2018-08-04T01:31:41.065Z,20.98
2018-08-04T01:34:11.363Z,20.97
2018-08-04T01:36:40.287Z,20.89
2018-08-04T01:39:10.639Z,20.90
2018-08-04T01:41:40.025Z,20.83
2018-08-04T01:44:09.408Z,20.82
2018-08-04T01:46:38.695Z,20.78
2018-08-04T01:49:07.857Z,20.69
2018-08-04T01:51:37.206Z,20.67
2018-08-04T01:54:06.332Z,20.60
2018-08-04T01:56:35.836Z,20.64
2018-08-04T01:59:05.217Z,20.57
2018-08-04T02:01:34.806Z,20.57
2018-08-04T02:04:04.017Z,20.53
2018-08-04T02:09:12.150Z,20.41
2018-08-04T02:11:41.271Z,20.40
2018-08-04T02:14:10.653Z,20.36
2018-08-04T02:16:39.928Z,20.32
2018-08-04T02:19:09.012Z,20.30
2018-08-04T02:21:38.222Z,20.21
2018-08-04T02:24:07.195Z,20.16
2018-08-04T02:26:37.024Z,20.27
2018-08-04T02:29:06.188Z,20.19
2018-08-04T02:31:35.437Z,20.13
2018-08-04T02:34:04.601Z,20.13
2018-08-04T02:36:33.716Z,20.14
2018-08-04T02:39:02.950Z,20.11
2018-08-04T02:41:32.324Z,20.03
2018-08-04T02:44:01.582Z,20.02
2018-08-04T02:46:31.129Z,20.02
2018-08-04T02:49:00.608Z,19.99
2018-08-04T02:51:29.843Z,19.97
2018-08-04T02:53:59.021Z,19.91
2018-08-04T02:56:28.131Z,19.89
2018-08-04T02:58:57.367Z,19.92
2018-08-04T03:01:26.712Z,19.90
2018-08-04T03:03:55.853Z,19.84
2018-08-04T03:06:25.106Z,19.78
2018-08-04T03:08:54.193Z,19.79
2018-08-04T03:11:23.701Z,19.68
2018-08-04T03:13:52.958Z,19.62
2018-08-04T03:16:22.095Z,19.61
2018-08-04T03:18:51.328Z,19.55
2018-08-04T03:21:20.447Z,19.66
2018-08-04T03:23:49.815Z,19.67
2018-08-04T03:26:19.108Z,19.58
2018-08-04T03:28:48.295Z,19.56
2018-08-04T03:31:17.400Z,19.53
2018-08-04T03:33:46.595Z,19.51
2018-08-04T03:36:15.795Z,19.47
2018-08-04T03:38:44.885Z,19.53
2018-08-04T03:41:14.152Z,19.54
2018-08-04T03:43:43.286Z,19.53
2018-08-04T03:46:12.198Z,19.53
2018-08-04T03:48:41.146Z,19.54
2018-08-04T03:51:10.382Z,19.54
2018-08-04T03:53:39.562Z,19.50
2018-08-04T03:56:08.944Z,19.48
2018-08-04T03:58:38.027Z,19.49
2018-08-04T05:20:21.114Z,21.40
2018-08-04T05:22:49.939Z,21.72
2018-08-04T05:25:18.828Z,21.68
2018-08-04T05:27:47.561Z,21.90
2018-08-04T05:30:16.413Z,22.01
2018-08-04T05:32:45.243Z,22.32
2018-08-04T05:35:14.150Z,22.45
2018-08-04T05:37:43.082Z,22.62
2018-08-04T05:40:12.175Z,22.80
2018-08-04T05:42:40.853Z,22.90
2018-08-04T05:45:10.304Z,22.91
2018-08-04T05:47:40.035Z,23.24
2018-08-04T05:50:08.725Z,23.46
2018-08-04T05:52:37.665Z,23.63
2018-08-04T05:55:06.511Z,23.76
2018-08-04T05:57:35.339Z,23.77
2018-08-04T06:00:04.491Z,23.93
2018-08-04T06:02:33.071Z,23.99
2018-08-04T06:05:01.800Z,24.14
2018-08-04T06:07:31.017Z,24.27
2018-08-04T06:09:59.747Z,24.39
2018-08-04T06:12:28.775Z,24.43
2018-08-04T06:14:57.681Z,24.55
2018-08-04T06:17:26.766Z,24.69
2018-08-04T06:19:56.062Z,24.81
2018-08-04T06:22:25.016Z,24.86
2018-08-04T06:24:54.276Z,24.99
2018-08-04T06:27:23.119Z,25.11
2018-08-04T06:29:52.032Z,25.11
2018-08-04T06:32:20.951Z,25.22
2018-08-04T06:34:49.676Z,25.42
2018-08-04T06:37:18.516Z,25.40
2018-08-04T06:39:47.597Z,25.65
2018-08-04T06:42:16.323Z,25.79
2018-08-04T06:44:45.011Z,25.94
2018-08-04T06:47:14.484Z,25.97
2018-08-04T06:49:43.159Z,26.12
2018-08-04T06:52:11.957Z,26.26
2018-08-04T06:54:40.751Z,26.14
2018-08-04T06:57:09.847Z,26.33
2018-08-04T06:59:38.578Z,26.41
2018-08-04T07:02:07.819Z,26.45
2018-08-04T07:04:36.743Z,26.64
2018-08-04T07:07:06.032Z,26.61
2018-08-04T07:09:35.066Z,26.61
2018-08-04T07:12:04.202Z,26.80
2018-08-04T07:14:32.979Z,26.94
2018-08-04T07:17:01.702Z,26.97
2018-08-04T07:19:31.915Z,27.08
2018-08-04T07:22:00.609Z,27.20
2018-08-04T07:24:30.884Z,27.42
2018-08-04T07:26:59.855Z,27.26
2018-08-04T07:29:28.746Z,27.30
2018-08-04T07:31:57.476Z,27.36
2018-08-04T07:34:26.372Z,27.56
2018-08-04T07:36:55.168Z,27.76
2018-08-04T07:39:23.961Z,27.70
2018-08-04T07:41:52.851Z,27.74
2018-08-04T07:44:21.905Z,27.93
2018-08-04T07:46:50.822Z,27.96
2018-08-04T07:49:19.571Z,28.07
2018-08-04T07:51:48.560Z,27.96
2018-08-04T07:54:17.513Z,28.14
2018-08-04T07:56:46.298Z,28.13
2018-08-04T07:59:14.932Z,28.25
2018-08-04T08:01:43.960Z,28.34
2018-08-04T08:04:13.285Z,28.33
2018-08-04T08:06:42.369Z,28.51
2018-08-04T08:09:11.156Z,28.58
2018-08-04T08:11:40.274Z,28.74
2018-08-04T08:14:09.277Z,28.83
2018-08-04T08:16:38.487Z,28.72
2018-08-04T08:19:07.590Z,28.87
2018-08-04T08:21:36.290Z,28.89
2018-08-04T08:24:05.133Z,28.89
2018-08-04T08:26:34.095Z,29.20
2018-08-04T08:29:03.411Z,29.02
2018-08-04T08:31:32.311Z,29.18
2018-08-04T08:34:01.076Z,29.51
2018-08-04T08:36:29.895Z,29.61
2018-08-04T08:38:58.640Z,29.38
2018-08-04T08:41:28.251Z,29.40
2018-08-04T08:43:57.363Z,29.56
2018-08-04T08:46:26.635Z,29.71
2018-08-04T08:48:55.300Z,29.82
2018-08-04T08:51:24.200Z,29.97
2018-08-04T08:53:53.332Z,29.80
2018-08-04T08:56:22.166Z,29.92
2018-08-04T08:58:51.280Z,29.90
2018-08-04T09:01:20.214Z,30.18
2018-08-04T09:03:49.183Z,30.17
2018-08-04T09:06:18.060Z,30.10
2018-08-04T09:08:47.462Z,30.16
2018-08-04T09:11:16.219Z,30.33
2018-08-04T09:13:45.023Z,30.36
2018-08-04T09:16:14.020Z,30.31
2018-08-04T09:18:42.869Z,30.56
2018-08-04T09:21:11.667Z,30.64
2018-08-04T09:23:40.535Z,30.71
2018-08-04T09:26:09.523Z,30.58
2018-08-04T09:28:38.464Z,30.64
2018-08-04T09:31:07.631Z,30.24
2018-08-04T09:33:36.617Z,30.62
2018-08-04T09:36:05.971Z,30.72
2018-08-04T09:38:34.891Z,30.90
2018-08-04T09:41:04.211Z,30.85
2018-08-04T09:43:33.448Z,31.23
2018-08-04T09:46:03.021Z,31.19
2018-08-04T09:48:32.243Z,31.21
2018-08-04T09:51:01.337Z,31.14
2018-08-04T09:53:30.246Z,31.40
2018-08-04T09:55:59.297Z,31.29
2018-08-04T09:58:28.019Z,31.82
2018-08-04T10:01:03.461Z,32.06
2018-08-04T10:03:33.035Z,31.74
2018-08-04T10:06:01.872Z,32.09
2018-08-04T10:08:30.643Z,32.40
2018-08-04T10:10:59.406Z,32.42
2018-08-04T10:13:28.036Z,32.54
2018-08-04T10:15:57.424Z,32.96
2018-08-04T10:18:27.136Z,32.88
2018-08-04T10:20:56.155Z,32.61
2018-08-04T10:23:25.184Z,33.42
2018-08-04T10:25:54.158Z,32.34
2018-08-04T10:28:22.968Z,32.92
2018-08-04T10:30:52.050Z,33.06
2018-08-04T10:33:20.654Z,32.93
2018-08-04T10:35:49.645Z,33.05
2018-08-04T10:38:18.896Z,33.19
2018-08-04T10:40:47.833Z,33.75
2018-08-04T10:43:17.243Z,33.12
2018-08-04T10:45:46.227Z,33.87
2018-08-04T10:48:15.107Z,34.06
2018-08-04T10:50:44.056Z,34.09
2018-08-04T10:53:13.409Z,34.52
2018-08-04T10:55:42.152Z,34.35
2018-08-04T10:58:11.503Z,34.89
2018-08-04T11:00:40.184Z,34.34
2018-08-04T11:03:08.975Z,34.17
2018-08-04T11:05:38.447Z,34.07
2018-08-04T11:08:07.127Z,33.54
2018-08-04T11:10:36.346Z,33.37
2018-08-04T11:13:05.722Z,33.42
2018-08-04T11:15:34.656Z,33.48
2018-08-04T11:18:03.967Z,33.51
2018-08-04T11:20:32.746Z,34.01
2018-08-04T11:23:01.945Z,35.13
2018-08-04T11:25:30.763Z,36.03
2018-08-04T11:27:59.568Z,35.85
2018-08-04T11:30:28.859Z,36.36
2018-08-04T11:32:57.758Z,35.20
2018-08-04T11:35:26.598Z,34.31
2018-08-04T11:37:55.685Z,34.09
2018-08-04T11:40:24.454Z,33.67
2018-08-04T11:42:57.087Z,33.52
2018-08-04T11:45:26.803Z,33.67
2018-08-04T11:47:58.120Z,33.22
2018-08-04T11:50:32.825Z,33.84
2018-08-04T11:53:03.382Z,35.09
2018-08-04T11:55:32.837Z,36.36
2018-08-04T11:58:01.772Z,37.07
2018-08-04T12:00:30.663Z,36.50
2018-08-04T12:03:00.561Z,35.14
2018-08-04T12:05:29.501Z,34.66
2018-08-04T12:07:58.347Z,34.77
2018-08-04T12:10:27.353Z,35.91
2018-08-04T12:12:56.025Z,36.37
2018-08-04T12:15:25.068Z,35.82
2018-08-04T12:17:54.025Z,35.92
2018-08-04T12:20:23.090Z,35.65
2018-08-04T12:22:52.463Z,35.15
2018-08-04T12:25:21.941Z,34.89
2018-08-04T12:27:51.996Z,34.00
2018-08-04T12:30:20.823Z,33.92
2018-08-04T12:32:49.460Z,34.00
2018-08-04T12:35:19.081Z,33.90
2018-08-04T12:37:48.577Z,34.24
2018-08-04T12:40:17.489Z,34.20
2018-08-04T12:42:47.606Z,35.00
2018-08-04T12:45:16.544Z,34.51
2018-08-04T12:47:45.288Z,35.11
2018-08-04T12:50:15.375Z,35.30
2018-08-04T12:52:44.378Z,35.82
2018-08-04T12:55:13.113Z,36.91
2018-08-04T12:57:42.087Z,37.85
2018-08-04T13:00:12.076Z,38.61
2018-08-04T13:02:41.318Z,38.48
2018-08-04T13:05:10.351Z,37.51
2018-08-04T13:07:39.421Z,37.99
2018-08-04T13:10:08.295Z,38.94
2018-08-04T13:12:43.919Z,37.89
2018-08-04T13:15:13.890Z,35.40
2018-08-04T13:17:42.638Z,35.57
2018-08-04T13:20:11.374Z,34.64
2018-08-04T13:22:40.523Z,34.17
2018-08-04T13:25:09.583Z,34.76
2018-08-04T13:27:38.642Z,37.49
2018-08-04T13:30:15.231Z,38.65
2018-08-04T13:32:43.971Z,38.39
2018-08-04T13:35:13.032Z,37.13
2018-08-04T13:37:41.731Z,34.93
2018-08-04T13:40:10.919Z,35.72
2018-08-04T13:42:39.853Z,37.79
2018-08-04T13:45:09.010Z,39.32
2018-08-04T13:47:37.942Z,36.54
2018-08-04T13:50:07.001Z,35.65
2018-08-04T13:52:36.211Z,35.06
2018-08-04T13:55:05.239Z,37.01
2018-08-04T13:57:33.977Z,38.16
2018-08-04T14:00:02.761Z,37.15
2018-08-04T14:02:31.543Z,36.95
2018-08-04T14:05:00.563Z,36.04
2018-08-04T14:07:29.277Z,38.02
2018-08-04T14:09:58.252Z,36.69
2018-08-04T14:12:27.105Z,37.60
2018-08-04T14:14:56.270Z,38.74
2018-08-04T14:17:25.396Z,37.39
2018-08-04T14:19:54.237Z,37.46
2018-08-04T14:22:23.741Z,38.25
2018-08-04T14:24:59.607Z,36.01
2018-08-04T14:27:28.981Z,35.69
2018-08-04T14:29:58.005Z,39.65
2018-08-04T14:32:26.734Z,39.59
2018-08-04T14:34:55.532Z,39.98
2018-08-04T14:37:24.260Z,40.86
2018-08-04T14:39:52.930Z,40.36
2018-08-04T14:42:21.658Z,40.65
2018-08-04T14:44:50.837Z,40.35
2018-08-04T14:47:20.532Z,40.98
2018-08-04T14:49:49.309Z,40.99
2018-08-04T14:52:18.554Z,41.27
2018-08-04T14:54:47.538Z,40.11
2018-08-04T14:57:16.411Z,40.49
2018-08-04T14:59:45.298Z,40.49
2018-08-04T15:02:14.608Z,40.89
2018-08-04T15:04:43.541Z,40.93
2018-08-04T15:07:12.196Z,40.99
2018-08-04T15:09:40.958Z,40.17
2018-08-04T15:12:09.823Z,38.78
2018-08-04T15:14:38.635Z,37.92
2018-08-04T15:17:07.343Z,38.69
2018-08-04T15:19:36.276Z,39.35
2018-08-04T15:22:05.414Z,38.04
2018-08-04T15:24:34.304Z,37.75
2018-08-04T15:27:03.234Z,37.92
2018-08-04T15:29:32.084Z,35.65
2018-08-04T15:32:01.079Z,35.20
2018-08-04T15:34:30.189Z,34.81
2018-08-04T15:36:59.212Z,34.42
2018-08-04T15:39:27.961Z,34.14
2018-08-04T15:41:56.763Z,33.95
2018-08-04T15:44:25.584Z,34.32
2018-08-04T15:46:54.498Z,34.09
2018-08-04T15:49:23.416Z,33.94
2018-08-04T15:51:52.103Z,34.26
2018-08-04T15:54:20.819Z,36.01
2018-08-04T15:56:49.696Z,35.32
2018-08-04T15:59:18.616Z,36.61
2018-08-04T16:01:47.708Z,35.48
2018-08-04T16:04:16.968Z,36.78
2018-08-04T16:06:45.869Z,36.63
2018-08-04T16:09:14.749Z,34.93
2018-08-04T16:11:43.538Z,34.43
2018-08-04T16:14:12.279Z,35.48
2018-08-04T16:16:41.404Z,34.62
2018-08-04T16:19:10.220Z,33.90
2018-08-04T16:21:39.576Z,33.94
2018-08-04T16:24:08.398Z,33.57
2018-08-04T16:26:37.219Z,32.92
2018-08-04T16:29:06.157Z,32.79
2018-08-04T16:31:34.963Z,32.64
2018-08-04T16:34:03.875Z,32.45
2018-08-04T16:36:32.594Z,32.38
2018-08-04T16:39:02.157Z,32.30
2018-08-04T16:41:31.147Z,32.27
2018-08-04T16:44:00.010Z,32.05
2018-08-04T16:46:28.789Z,31.97
2018-08-04T16:48:57.604Z,31.72
2018-08-04T16:51:26.327Z,31.69
2018-08-04T16:53:54.997Z,31.73
2018-08-04T16:56:23.690Z,31.64
2018-08-04T16:58:52.460Z,31.80
2018-08-04T17:01:21.371Z,31.58
2018-08-04T17:03:50.124Z,31.46
2018-08-04T17:06:18.940Z,31.51
2018-08-04T17:08:48.546Z,31.27
2018-08-04T17:11:17.572Z,31.30
2018-08-04T17:13:46.376Z,31.21
2018-08-04T17:16:15.213Z,31.11
2018-08-04T17:18:43.836Z,31.04
2018-08-04T17:21:12.580Z,30.96
2018-08-04T17:23:41.435Z,30.79
2018-08-04T17:26:10.357Z,30.67
2018-08-04T17:28:39.884Z,30.68
2018-08-04T17:31:09.191Z,30.52
2018-08-04T17:33:37.848Z,30.46
2018-08-04T17:36:06.948Z,30.38
2018-08-04T17:38:36.626Z,30.40
2018-08-04T17:41:06.175Z,30.25
2018-08-04T17:43:35.261Z,30.07
2018-08-04T17:46:04.142Z,30.04
2018-08-04T17:48:32.883Z,29.92
2018-08-04T17:51:01.932Z,29.91
2018-08-04T17:53:30.964Z,29.88
2018-08-04T17:56:00.121Z,29.81
2018-08-04T17:58:28.957Z,29.70
2018-08-04T18:00:58.324Z,29.68
2018-08-04T18:03:27.108Z,29.58
2018-08-04T18:05:55.856Z,29.43
2018-08-04T18:08:24.943Z,29.30
2018-08-04T18:10:53.934Z,29.23
2018-08-04T18:13:22.723Z,29.04
2018-08-04T18:15:51.798Z,28.99
2018-08-04T18:18:20.644Z,29.00
2018-08-04T18:20:49.782Z,28.86
2018-08-04T18:23:18.756Z,28.62
2018-08-04T18:25:47.768Z,28.70
2018-08-04T18:28:16.591Z,28.66
2018-08-04T18:30:45.312Z,28.68
2018-08-04T18:33:14.202Z,28.58
2018-08-04T18:35:43.275Z,28.48
2018-08-04T18:38:12.198Z,28.57
2018-08-04T18:40:41.083Z,28.44
2018-08-04T18:43:11.324Z,28.27
2018-08-04T18:45:41.659Z,28.23
2018-08-04T18:48:10.766Z,28.23
2018-08-04T18:50:39.982Z,28.09
2018-08-04T18:53:08.945Z,28.00
2018-08-04T18:55:37.903Z,27.94
2018-08-04T18:58:06.812Z,27.89
2018-08-04T19:00:36.100Z,27.89
2018-08-04T19:03:04.747Z,27.84
2018-08-04T19:05:33.408Z,27.73
2018-08-04T19:08:02.371Z,27.68
2018-08-04T19:10:31.261Z,27.69
2018-08-04T19:13:00.244Z,27.55
2018-08-04T19:15:29.297Z,27.55
2018-08-04T19:17:58.136Z,27.43
2018-08-04T19:20:26.922Z,27.38
2018-08-04T19:22:56.123Z,27.39
2018-08-04T19:25:25.363Z,27.44
2018-08-04T19:27:54.785Z,27.27
2018-08-04T19:30:23.554Z,27.17
2018-08-04T19:32:52.735Z,27.15
2018-08-04T19:35:21.953Z,27.17
2018-08-04T19:37:51.014Z,27.10
2018-08-04T19:40:20.128Z,27.07
2018-08-04T19:42:48.786Z,27.02
2018-08-04T19:45:19.317Z,27.00
2018-08-04T19:47:48.587Z,26.93
2018-08-04T19:50:18.210Z,27.03
2018-08-04T19:52:47.218Z,26.98
2018-08-04T19:55:16.280Z,26.84
2018-08-04T19:57:45.210Z,26.92
2018-08-04T20:00:14.037Z,27.16
2018-08-04T20:02:43.380Z,27.06
2018-08-04T20:05:12.133Z,26.97
2018-08-04T20:07:41.579Z,26.89
2018-08-04T20:10:10.404Z,26.83
2018-08-04T20:12:39.164Z,26.69
2018-08-04T20:15:08.081Z,26.68
2018-08-04T20:17:36.968Z,26.53
2018-08-04T20:20:06.273Z,26.56
2018-08-04T20:22:35.128Z,26.48
2018-08-04T20:25:04.062Z,26.40
2018-08-04T20:27:32.896Z,26.33
2018-08-04T20:30:01.760Z,26.32
2018-08-04T20:32:30.683Z,26.38
2018-08-04T20:34:59.906Z,26.26
2018-08-04T20:37:29.283Z,26.30
2018-08-04T20:39:59.050Z,26.29
2018-08-04T20:42:27.797Z,26.23
2018-08-04T20:44:56.573Z,26.20
2018-08-04T20:47:25.496Z,26.13
2018-08-04T20:49:54.352Z,26.04
2018-08-04T20:52:23.270Z,26.12
2018-08-04T20:54:52.084Z,26.04
2018-08-04T20:57:21.244Z,26.08
2018-08-04T20:59:50.245Z,26.01
2018-08-04T21:02:19.631Z,26.01
2018-08-04T21:04:49.202Z,25.99
2018-08-04T21:07:17.968Z,25.95
2018-08-04T21:09:49.493Z,25.91
2018-08-04T21:12:19.749Z,25.86
2018-08-04T21:14:49.315Z,25.80
2018-08-04T21:17:18.205Z,25.82
2018-08-04T21:19:46.957Z,25.69
2018-08-04T21:22:15.976Z,25.68
2018-08-04T21:24:45.295Z,25.71
2018-08-04T21:27:13.992Z,25.60
2018-08-04T21:29:42.852Z,25.58
2018-08-04T21:32:11.671Z,25.43
2018-08-04T21:34:40.965Z,25.38
2018-08-04T21:37:10.455Z,25.37
2018-08-04T21:39:39.452Z,25.33
2018-08-04T21:42:08.548Z,25.24
2018-08-04T21:44:37.605Z,25.14
2018-08-04T21:47:06.967Z,25.17
2018-08-04T21:49:36.192Z,24.97
2018-08-04T21:52:05.344Z,24.95
2018-08-04T21:54:34.384Z,24.90
2018-08-04T21:57:04.025Z,24.77
2018-08-04T21:59:32.696Z,24.90
2018-08-04T22:02:02.011Z,24.81
2018-08-04T22:04:31.391Z,24.81
2018-08-04T22:08:09.847Z,24.78
2018-08-04T22:10:39.094Z,24.70
2018-08-04T22:13:08.978Z,24.67
2018-08-04T22:15:37.671Z,24.61
2018-08-04T22:18:06.427Z,24.58
2018-08-04T22:20:35.064Z,24.58
2018-08-04T22:23:03.673Z,24.51
2018-08-04T22:25:32.589Z,24.43
2018-08-04T22:28:01.759Z,24.35
2018-08-04T22:30:30.792Z,24.21
2018-08-04T22:32:59.574Z,24.25
2018-08-04T22:35:28.267Z,24.23
2018-08-04T22:37:57.234Z,24.17
2018-08-04T22:40:26.334Z,24.21
2018-08-04T22:42:55.231Z,24.18
2018-08-04T22:46:01.917Z,24.18
2018-08-04T22:48:30.746Z,24.11
2018-08-04T22:50:59.446Z,24.07
2018-08-04T22:53:28.755Z,24.03
2018-08-04T22:56:04.128Z,24.04
2018-08-04T22:58:33.020Z,23.94
2018-08-04T23:01:01.825Z,23.84
2018-08-04T23:03:30.725Z,23.81
2018-08-04T23:05:59.448Z,23.83
2018-08-04T23:08:28.318Z,23.69
2018-08-04T23:10:57.281Z,23.79
2018-08-04T23:13:26.374Z,23.93
2018-08-04T23:15:55.463Z,23.77
2018-08-04T23:18:24.357Z,23.81
2018-08-04T23:20:53.467Z,23.72
2018-08-04T23:23:22.567Z,23.67
2018-08-04T23:25:51.228Z,23.70
2018-08-04T23:28:26.888Z,23.64
2018-08-04T23:30:56.339Z,23.62
2018-08-04T23:33:25.070Z,23.64
2018-08-04T23:35:53.957Z,23.51
2018-08-04T23:38:22.844Z,23.40
2018-08-04T23:40:51.703Z,23.38
2018-08-04T23:43:20.819Z,23.37
2018-08-04T23:45:49.532Z,23.28
2018-08-04T23:48:18.135Z,23.24
2018-08-04T23:50:47.022Z,23.26
2018-08-04T23:53:16.003Z,23.20
2018-08-04T23:55:44.879Z,23.19
2018-08-04T23:58:14.913Z,23.29
